sensor_id;sensor_type;location;lat;lon;timestamp;P1;durP1;ratioP1;P2;durP2;ratioP2
21192;SDS011;10754;51.106;7.164;2022-10-16T00:00:40;2.15;;;1.20;;
21192;SDS011;10754;51.106;7.164;2022-10-16T00:03:06;3.25;;;1.33;;
21192;SDS011;10754;51.106;7.164;2022-10-16T00:05:33;1.50;;;1.08;;
21192;SDS011;10754;51.106;7.164;2022-10-16T00:08:03;1.75;;;1.05;;
21192;SDS011;10754;51.106;7.164;2022-10-16T00:10:28;2.67;;;1.27;;
21192;SDS011;10754;51.106;7.164;2022-10-16T00:12:54;3.10;;;1.45;;
21192;SDS011;10754;51.106;7.164;2022-10-16T00:15:19;3.33;;;1.17;;
21192;SDS011;10754;51.106;7.164;2022-10-16T00:17:45;2.58;;;1.20;;
21192;SDS011;10754;51.106;7.164;2022-10-16T00:20:10;5.15;;;1.15;;
21192;SDS011;10754;51.106;7.164;2022-10-16T00:22:36;1.40;;;1.27;;
21192;SDS011;10754;51.106;7.164;2022-10-16T00:25:01;2.45;;;1.50;;
21192;SDS011;10754;51.106;7.164;2022-10-16T00:27:27;5.05;;;1.50;;
21192;SDS011;10754;51.106;7.164;2022-10-16T00:29:52;4.72;;;1.30;;
21192;SDS011;10754;51.106;7.164;2022-10-16T00:32:18;1.42;;;1.33;;
21192;SDS011;10754;51.106;7.164;2022-10-16T00:34:44;5.03;;;1.80;;
21192;SDS011;10754;51.106;7.164;2022-10-16T00:37:10;4.18;;;1.67;;
21192;SDS011;10754;51.106;7.164;2022-10-16T00:39:36;5.60;;;1.77;;
21192;SDS011;10754;51.106;7.164;2022-10-16T00:42:02;2.03;;;1.10;;
21192;SDS011;10754;51.106;7.164;2022-10-16T00:44:42;2.97;;;1.30;;
21192;SDS011;10754;51.106;7.164;2022-10-16T00:50:04;4.07;;;1.27;;
21192;SDS011;10754;51.106;7.164;2022-10-16T00:52:34;1.70;;;1.30;;
21192;SDS011;10754;51.106;7.164;2022-10-16T00:55:01;1.30;;;1.20;;
21192;SDS011;10754;51.106;7.164;2022-10-16T00:57:28;1.90;;;1.10;;
21192;SDS011;10754;51.106;7.164;2022-10-16T00:59:54;3.53;;;1.23;;
21192;SDS011;10754;51.106;7.164;2022-10-16T01:02:19;1.23;;;1.13;;
21192;SDS011;10754;51.106;7.164;2022-10-16T01:04:52;3.20;;;1.20;;
21192;SDS011;10754;51.106;7.164;2022-10-16T01:13:10;2.25;;;1.20;;
21192;SDS011;10754;51.106;7.164;2022-10-16T01:15:46;3.08;;;1.02;;
21192;SDS011;10754;51.106;7.164;2022-10-16T01:19:08;3.30;;;1.40;;
21192;SDS011;10754;51.106;7.164;2022-10-16T01:21:35;2.10;;;0.98;;
21192;SDS011;10754;51.106;7.164;2022-10-16T01:24:26;1.70;;;1.10;;
21192;SDS011;10754;51.106;7.164;2022-10-16T01:35:11;5.60;;;1.27;;
21192;SDS011;10754;51.106;7.164;2022-10-16T01:37:46;1.55;;;0.90;;
21192;SDS011;10754;51.106;7.164;2022-10-16T01:40:17;1.40;;;0.85;;
21192;SDS011;10754;51.106;7.164;2022-10-16T01:42:50;0.95;;;0.82;;
21192;SDS011;10754;51.106;7.164;2022-10-16T01:45:19;6.07;;;1.17;;
21192;SDS011;10754;51.106;7.164;2022-10-16T01:47:46;1.48;;;1.00;;
21192;SDS011;10754;51.106;7.164;2022-10-16T01:50:14;4.90;;;1.10;;
21192;SDS011;10754;51.106;7.164;2022-10-16T01:52:43;2.70;;;1.10;;
21192;SDS011;10754;51.106;7.164;2022-10-16T01:55:12;6.90;;;1.10;;
21192;SDS011;10754;51.106;7.164;2022-10-16T01:57:44;2.05;;;0.80;;
21192;SDS011;10754;51.106;7.164;2022-10-16T02:00:13;1.33;;;0.60;;
21192;SDS011;10754;51.106;7.164;2022-10-16T02:02:42;2.28;;;0.90;;
21192;SDS011;10754;51.106;7.164;2022-10-16T02:05:23;3.17;;;0.90;;
21192;SDS011;10754;51.106;7.164;2022-10-16T02:08:08;1.75;;;0.85;;
21192;SDS011;10754;51.106;7.164;2022-10-16T02:10:34;1.25;;;0.70;;
21192;SDS011;10754;51.106;7.164;2022-10-16T02:13:03;4.07;;;1.17;;
21192;SDS011;10754;51.106;7.164;2022-10-16T02:15:36;2.42;;;0.80;;
21192;SDS011;10754;51.106;7.164;2022-10-16T02:18:02;1.67;;;0.70;;
21192;SDS011;10754;51.106;7.164;2022-10-16T02:20:31;2.47;;;0.80;;
21192;SDS011;10754;51.106;7.164;2022-10-16T02:23:01;1.58;;;0.70;;
21192;SDS011;10754;51.106;7.164;2022-10-16T02:25:30;2.67;;;0.80;;
21192;SDS011;10754;51.106;7.164;2022-10-16T02:28:04;2.10;;;0.57;;
21192;SDS011;10754;51.106;7.164;2022-10-16T02:30:39;0.70;;;0.70;;
21192;SDS011;10754;51.106;7.164;2022-10-16T02:33:12;0.77;;;0.60;;
21192;SDS011;10754;51.106;7.164;2022-10-16T02:35:39;1.60;;;0.77;;
21192;SDS011;10754;51.106;7.164;2022-10-16T02:38:06;2.83;;;0.85;;
21192;SDS011;10754;51.106;7.164;2022-10-16T02:40:33;2.13;;;0.90;;
21192;SDS011;10754;51.106;7.164;2022-10-16T02:43:00;3.30;;;0.80;;
21192;SDS011;10754;51.106;7.164;2022-10-16T02:45:28;0.70;;;0.60;;
21192;SDS011;10754;51.106;7.164;2022-10-16T02:47:54;6.03;;;0.90;;
21192;SDS011;10754;51.106;7.164;2022-10-16T02:50:19;0.68;;;0.65;;
21192;SDS011;10754;51.106;7.164;2022-10-16T02:52:45;1.23;;;0.60;;
21192;SDS011;10754;51.106;7.164;2022-10-16T02:55:10;1.15;;;0.60;;
21192;SDS011;10754;51.106;7.164;2022-10-16T02:57:36;1.27;;;0.60;;
21192;SDS011;10754;51.106;7.164;2022-10-16T03:00:03;4.75;;;0.85;;
21192;SDS011;10754;51.106;7.164;2022-10-16T03:02:29;2.33;;;0.93;;
21192;SDS011;10754;51.106;7.164;2022-10-16T03:04:55;1.33;;;0.70;;
21192;SDS011;10754;51.106;7.164;2022-10-16T03:07:21;2.15;;;0.90;;
21192;SDS011;10754;51.106;7.164;2022-10-16T03:09:46;2.05;;;0.60;;
21192;SDS011;10754;51.106;7.164;2022-10-16T03:12:11;3.35;;;0.90;;
21192;SDS011;10754;51.106;7.164;2022-10-16T03:14:37;2.83;;;0.70;;
21192;SDS011;10754;51.106;7.164;2022-10-16T03:17:04;1.15;;;0.73;;
21192;SDS011;10754;51.106;7.164;2022-10-16T03:19:30;1.95;;;0.50;;
21192;SDS011;10754;51.106;7.164;2022-10-16T03:21:55;1.98;;;0.80;;
21192;SDS011;10754;51.106;7.164;2022-10-16T03:24:21;1.45;;;0.70;;
21192;SDS011;10754;51.106;7.164;2022-10-16T03:26:46;0.52;;;0.52;;
21192;SDS011;10754;51.106;7.164;2022-10-16T03:29:12;1.10;;;0.65;;
21192;SDS011;10754;51.106;7.164;2022-10-16T03:31:37;1.83;;;0.70;;
21192;SDS011;10754;51.106;7.164;2022-10-16T03:34:03;1.13;;;0.60;;
21192;SDS011;10754;51.106;7.164;2022-10-16T03:36:28;1.85;;;0.63;;
21192;SDS011;10754;51.106;7.164;2022-10-16T03:38:54;0.95;;;0.57;;
21192;SDS011;10754;51.106;7.164;2022-10-16T03:41:19;3.67;;;0.80;;
21192;SDS011;10754;51.106;7.164;2022-10-16T03:43:45;1.23;;;0.70;;
21192;SDS011;10754;51.106;7.164;2022-10-16T03:46:11;2.05;;;0.80;;
21192;SDS011;10754;51.106;7.164;2022-10-16T03:48:36;1.70;;;0.70;;
21192;SDS011;10754;51.106;7.164;2022-10-16T03:51:02;4.03;;;1.10;;
21192;SDS011;10754;51.106;7.164;2022-10-16T03:53:27;1.52;;;0.60;;
21192;SDS011;10754;51.106;7.164;2022-10-16T03:55:53;2.10;;;0.68;;
21192;SDS011;10754;51.106;7.164;2022-10-16T03:58:19;1.50;;;0.57;;
21192;SDS011;10754;51.106;7.164;2022-10-16T04:00:45;1.38;;;0.95;;
21192;SDS011;10754;51.106;7.164;2022-10-16T04:03:12;1.65;;;0.85;;
21192;SDS011;10754;51.106;7.164;2022-10-16T04:05:38;1.88;;;0.70;;
21192;SDS011;10754;51.106;7.164;2022-10-16T04:08:04;1.48;;;0.70;;
21192;SDS011;10754;51.106;7.164;2022-10-16T04:10:29;4.30;;;0.82;;
21192;SDS011;10754;51.106;7.164;2022-10-16T04:12:55;2.85;;;0.90;;
21192;SDS011;10754;51.106;7.164;2022-10-16T04:15:24;0.77;;;0.70;;
21192;SDS011;10754;51.106;7.164;2022-10-16T04:17:50;2.00;;;0.98;;
21192;SDS011;10754;51.106;7.164;2022-10-16T04:20:16;1.60;;;0.60;;
21192;SDS011;10754;51.106;7.164;2022-10-16T04:22:42;1.90;;;0.82;;
21192;SDS011;10754;51.106;7.164;2022-10-16T04:25:07;1.85;;;0.68;;
21192;SDS011;10754;51.106;7.164;2022-10-16T04:27:33;1.05;;;0.63;;
21192;SDS011;10754;51.106;7.164;2022-10-16T04:29:59;2.95;;;0.75;;
21192;SDS011;10754;51.106;7.164;2022-10-16T04:32:25;2.40;;;0.80;;
21192;SDS011;10754;51.106;7.164;2022-10-16T04:34:50;1.42;;;0.80;;
21192;SDS011;10754;51.106;7.164;2022-10-16T04:37:16;2.42;;;0.75;;
21192;SDS011;10754;51.106;7.164;2022-10-16T04:39:41;1.63;;;0.95;;
21192;SDS011;10754;51.106;7.164;2022-10-16T04:42:07;1.10;;;0.70;;
21192;SDS011;10754;51.106;7.164;2022-10-16T04:44:32;0.68;;;0.50;;
21192;SDS011;10754;51.106;7.164;2022-10-16T04:46:58;2.53;;;0.90;;
21192;SDS011;10754;51.106;7.164;2022-10-16T04:49:23;0.60;;;0.60;;
21192;SDS011;10754;51.106;7.164;2022-10-16T04:51:49;2.05;;;0.77;;
21192;SDS011;10754;51.106;7.164;2022-10-16T04:54:14;2.63;;;0.85;;
21192;SDS011;10754;51.106;7.164;2022-10-16T04:56:40;3.30;;;0.90;;
21192;SDS011;10754;51.106;7.164;2022-10-16T04:59:11;2.78;;;0.90;;
21192;SDS011;10754;51.106;7.164;2022-10-16T05:01:38;1.30;;;0.63;;
21192;SDS011;10754;51.106;7.164;2022-10-16T05:04:03;2.08;;;0.60;;
21192;SDS011;10754;51.106;7.164;2022-10-16T05:06:29;1.73;;;0.70;;
21192;SDS011;10754;51.106;7.164;2022-10-16T05:08:54;2.13;;;0.80;;
21192;SDS011;10754;51.106;7.164;2022-10-16T05:11:20;1.65;;;0.60;;
21192;SDS011;10754;51.106;7.164;2022-10-16T05:13:46;1.40;;;0.63;;
21192;SDS011;10754;51.106;7.164;2022-10-16T05:16:11;2.65;;;0.75;;
21192;SDS011;10754;51.106;7.164;2022-10-16T05:18:37;1.88;;;0.80;;
21192;SDS011;10754;51.106;7.164;2022-10-16T05:21:02;2.67;;;0.60;;
21192;SDS011;10754;51.106;7.164;2022-10-16T05:23:28;3.22;;;0.88;;
21192;SDS011;10754;51.106;7.164;2022-10-16T05:25:54;1.65;;;0.70;;
21192;SDS011;10754;51.106;7.164;2022-10-16T05:28:22;1.55;;;0.68;;
21192;SDS011;10754;51.106;7.164;2022-10-16T05:30:49;3.50;;;0.70;;
21192;SDS011;10754;51.106;7.164;2022-10-16T05:33:14;1.33;;;0.52;;
21192;SDS011;10754;51.106;7.164;2022-10-16T05:35:40;1.15;;;0.70;;
21192;SDS011;10754;51.106;7.164;2022-10-16T05:38:06;3.08;;;0.80;;
21192;SDS011;10754;51.106;7.164;2022-10-16T05:40:31;1.67;;;0.60;;
21192;SDS011;10754;51.106;7.164;2022-10-16T05:42:57;2.03;;;0.60;;
21192;SDS011;10754;51.106;7.164;2022-10-16T05:45:22;1.65;;;0.60;;
21192;SDS011;10754;51.106;7.164;2022-10-16T05:47:48;1.73;;;0.60;;
21192;SDS011;10754;51.106;7.164;2022-10-16T05:50:13;1.25;;;0.75;;
21192;SDS011;10754;51.106;7.164;2022-10-16T05:52:39;4.95;;;0.90;;
21192;SDS011;10754;51.106;7.164;2022-10-16T05:55:05;2.05;;;0.55;;
21192;SDS011;10754;51.106;7.164;2022-10-16T05:57:30;1.00;;;0.50;;
21192;SDS011;10754;51.106;7.164;2022-10-16T05:59:56;4.05;;;0.82;;
21192;SDS011;10754;51.106;7.164;2022-10-16T06:02:21;1.30;;;0.60;;
21192;SDS011;10754;51.106;7.164;2022-10-16T06:04:47;2.88;;;0.70;;
21192;SDS011;10754;51.106;7.164;2022-10-16T06:07:13;0.50;;;0.50;;
21192;SDS011;10754;51.106;7.164;2022-10-16T06:09:38;4.15;;;0.70;;
21192;SDS011;10754;51.106;7.164;2022-10-16T06:12:04;3.40;;;0.90;;
21192;SDS011;10754;51.106;7.164;2022-10-16T06:14:29;1.10;;;0.60;;
21192;SDS011;10754;51.106;7.164;2022-10-16T06:16:55;1.90;;;0.60;;
21192;SDS011;10754;51.106;7.164;2022-10-16T06:19:20;1.95;;;0.70;;
21192;SDS011;10754;51.106;7.164;2022-10-16T06:21:46;2.05;;;0.60;;
21192;SDS011;10754;51.106;7.164;2022-10-16T06:24:11;1.83;;;0.65;;
21192;SDS011;10754;51.106;7.164;2022-10-16T06:26:37;1.20;;;0.77;;
21192;SDS011;10754;51.106;7.164;2022-10-16T06:29:03;2.47;;;0.80;;
21192;SDS011;10754;51.106;7.164;2022-10-16T06:31:29;1.33;;;0.50;;
21192;SDS011;10754;51.106;7.164;2022-10-16T06:33:58;1.52;;;0.80;;
21192;SDS011;10754;51.106;7.164;2022-10-16T06:36:23;1.58;;;0.73;;
21192;SDS011;10754;51.106;7.164;2022-10-16T06:38:50;3.95;;;0.88;;
21192;SDS011;10754;51.106;7.164;2022-10-16T06:41:17;2.05;;;0.68;;
21192;SDS011;10754;51.106;7.164;2022-10-16T06:43:44;4.20;;;1.25;;
21192;SDS011;10754;51.106;7.164;2022-10-16T06:46:11;1.27;;;0.75;;
21192;SDS011;10754;51.106;7.164;2022-10-16T06:48:38;3.10;;;0.60;;
21192;SDS011;10754;51.106;7.164;2022-10-16T06:51:05;1.10;;;0.73;;
21192;SDS011;10754;51.106;7.164;2022-10-16T06:53:34;2.45;;;0.80;;
21192;SDS011;10754;51.106;7.164;2022-10-16T06:56:11;1.75;;;0.50;;
21192;SDS011;10754;51.106;7.164;2022-10-16T06:58:41;3.33;;;0.75;;
21192;SDS011;10754;51.106;7.164;2022-10-16T07:01:07;0.82;;;0.60;;
21192;SDS011;10754;51.106;7.164;2022-10-16T07:03:33;1.85;;;0.73;;
21192;SDS011;10754;51.106;7.164;2022-10-16T07:06:01;1.27;;;0.70;;
21192;SDS011;10754;51.106;7.164;2022-10-16T07:08:31;1.38;;;0.60;;
21192;SDS011;10754;51.106;7.164;2022-10-16T07:11:01;2.10;;;0.80;;
21192;SDS011;10754;51.106;7.164;2022-10-16T07:13:28;3.13;;;0.90;;
21192;SDS011;10754;51.106;7.164;2022-10-16T07:15:54;0.82;;;0.47;;
21192;SDS011;10754;51.106;7.164;2022-10-16T07:18:19;0.95;;;0.73;;
21192;SDS011;10754;51.106;7.164;2022-10-16T07:20:45;0.70;;;0.70;;
21192;SDS011;10754;51.106;7.164;2022-10-16T07:23:10;1.60;;;0.50;;
21192;SDS011;10754;51.106;7.164;2022-10-16T07:25:36;3.25;;;0.70;;
21192;SDS011;10754;51.106;7.164;2022-10-16T07:28:01;0.95;;;0.50;;
21192;SDS011;10754;51.106;7.164;2022-10-16T07:30:27;1.25;;;0.70;;
21192;SDS011;10754;51.106;7.164;2022-10-16T07:32:52;0.82;;;0.70;;
21192;SDS011;10754;51.106;7.164;2022-10-16T07:35:18;0.60;;;0.52;;
21192;SDS011;10754;51.106;7.164;2022-10-16T07:37:44;2.05;;;0.60;;
21192;SDS011;10754;51.106;7.164;2022-10-16T07:40:10;1.20;;;0.60;;
21192;SDS011;10754;51.106;7.164;2022-10-16T07:42:36;0.82;;;0.60;;
21192;SDS011;10754;51.106;7.164;2022-10-16T07:45:01;1.48;;;0.70;;
21192;SDS011;10754;51.106;7.164;2022-10-16T07:47:27;1.13;;;0.70;;
21192;SDS011;10754;51.106;7.164;2022-10-16T07:49:52;1.30;;;0.60;;
21192;SDS011;10754;51.106;7.164;2022-10-16T07:52:18;0.98;;;0.60;;
21192;SDS011;10754;51.106;7.164;2022-10-16T07:54:44;2.88;;;1.20;;
21192;SDS011;10754;51.106;7.164;2022-10-16T07:57:09;2.67;;;0.82;;
21192;SDS011;10754;51.106;7.164;2022-10-16T07:59:35;1.02;;;0.73;;
21192;SDS011;10754;51.106;7.164;2022-10-16T08:02:00;2.85;;;0.80;;
21192;SDS011;10754;51.106;7.164;2022-10-16T08:04:25;2.40;;;0.70;;
21192;SDS011;10754;51.106;7.164;2022-10-16T08:06:51;1.83;;;0.82;;
21192;SDS011;10754;51.106;7.164;2022-10-16T08:09:16;3.10;;;0.82;;
21192;SDS011;10754;51.106;7.164;2022-10-16T08:11:42;1.38;;;0.60;;
21192;SDS011;10754;51.106;7.164;2022-10-16T08:14:07;0.90;;;0.70;;
21192;SDS011;10754;51.106;7.164;2022-10-16T08:16:33;0.82;;;0.60;;
21192;SDS011;10754;51.106;7.164;2022-10-16T08:18:58;1.75;;;1.00;;
21192;SDS011;10754;51.106;7.164;2022-10-16T08:21:24;1.88;;;1.13;;
21192;SDS011;10754;51.106;7.164;2022-10-16T08:23:50;2.53;;;1.45;;
21192;SDS011;10754;51.106;7.164;2022-10-16T08:26:16;1.98;;;1.13;;
21192;SDS011;10754;51.106;7.164;2022-10-16T08:28:41;0.95;;;0.57;;
21192;SDS011;10754;51.106;7.164;2022-10-16T08:31:14;2.15;;;0.63;;
21192;SDS011;10754;51.106;7.164;2022-10-16T08:33:41;3.20;;;0.75;;
21192;SDS011;10754;51.106;7.164;2022-10-16T08:36:09;1.27;;;0.63;;
21192;SDS011;10754;51.106;7.164;2022-10-16T08:38:35;2.00;;;0.85;;
21192;SDS011;10754;51.106;7.164;2022-10-16T08:41:17;4.25;;;1.05;;
21192;SDS011;10754;51.106;7.164;2022-10-16T08:44:13;1.75;;;0.45;;
21192;SDS011;10754;51.106;7.164;2022-10-16T08:47:17;1.33;;;0.50;;
21192;SDS011;10754;51.106;7.164;2022-10-16T08:49:59;1.02;;;0.75;;
21192;SDS011;10754;51.106;7.164;2022-10-16T08:52:32;3.17;;;0.80;;
21192;SDS011;10754;51.106;7.164;2022-10-16T08:55:00;1.52;;;0.65;;
21192;SDS011;10754;51.106;7.164;2022-10-16T08:57:27;0.82;;;0.70;;
21192;SDS011;10754;51.106;7.164;2022-10-16T08:59:52;2.22;;;0.70;;
21192;SDS011;10754;51.106;7.164;2022-10-16T09:10:34;3.30;;;0.60;;
21192;SDS011;10754;51.106;7.164;2022-10-16T09:16:14;1.70;;;0.70;;
21192;SDS011;10754;51.106;7.164;2022-10-16T09:21:25;0.70;;;0.40;;
21192;SDS011;10754;51.106;7.164;2022-10-16T09:23:57;1.48;;;0.60;;
21192;SDS011;10754;51.106;7.164;2022-10-16T09:26:36;2.45;;;0.60;;
21192;SDS011;10754;51.106;7.164;2022-10-16T09:29:02;3.13;;;0.55;;
21192;SDS011;10754;51.106;7.164;2022-10-16T09:31:28;2.75;;;0.60;;
21192;SDS011;10754;51.106;7.164;2022-10-16T09:34:00;0.93;;;0.55;;
21192;SDS011;10754;51.106;7.164;2022-10-16T09:36:34;0.60;;;0.35;;
21192;SDS011;10754;51.106;7.164;2022-10-16T09:39:07;2.15;;;0.57;;
21192;SDS011;10754;51.106;7.164;2022-10-16T09:41:34;1.73;;;0.63;;
21192;SDS011;10754;51.106;7.164;2022-10-16T09:44:02;3.20;;;0.80;;
21192;SDS011;10754;51.106;7.164;2022-10-16T09:46:36;2.35;;;0.70;;
21192;SDS011;10754;51.106;7.164;2022-10-16T09:49:04;2.67;;;0.70;;
21192;SDS011;10754;51.106;7.164;2022-10-16T09:51:50;2.20;;;0.60;;
21192;SDS011;10754;51.106;7.164;2022-10-16T09:54:17;4.28;;;0.95;;
21192;SDS011;10754;51.106;7.164;2022-10-16T09:56:45;1.30;;;0.50;;
21192;SDS011;10754;51.106;7.164;2022-10-16T10:01:43;1.55;;;0.40;;
21192;SDS011;10754;51.106;7.164;2022-10-16T10:04:11;2.67;;;0.63;;
21192;SDS011;10754;51.106;7.164;2022-10-16T10:06:41;1.95;;;0.68;;
21192;SDS011;10754;51.106;7.164;2022-10-16T10:11:53;1.35;;;0.52;;
21192;SDS011;10754;51.106;7.164;2022-10-16T10:14:24;0.65;;;0.30;;
21192;SDS011;10754;51.106;7.164;2022-10-16T10:17:46;1.67;;;0.40;;
21192;SDS011;10754;51.106;7.164;2022-10-16T10:19:58;1.83;;;0.40;;
21192;SDS011;10754;51.106;7.164;2022-10-16T10:24:55;1.75;;;0.40;;
21192;SDS011;10754;51.106;7.164;2022-10-16T10:27:46;1.73;;;0.35;;
21192;SDS011;10754;51.106;7.164;2022-10-16T10:30:51;1.33;;;0.45;;
21192;SDS011;10754;51.106;7.164;2022-10-16T10:33:34;1.50;;;0.57;;
21192;SDS011;10754;51.106;7.164;2022-10-16T10:50:34;1.95;;;0.52;;
21192;SDS011;10754;51.106;7.164;2022-10-16T10:53:18;1.35;;;0.50;;
21192;SDS011;10754;51.106;7.164;2022-10-16T11:01:22;1.13;;;0.40;;
21192;SDS011;10754;51.106;7.164;2022-10-16T11:07:04;2.03;;;0.43;;
21192;SDS011;10754;51.106;7.164;2022-10-16T11:09:36;0.57;;;0.40;;
21192;SDS011;10754;51.106;7.164;2022-10-16T11:12:19;0.65;;;0.20;;
21192;SDS011;10754;51.106;7.164;2022-10-16T11:15:04;1.27;;;0.30;;
21192;SDS011;10754;51.106;7.164;2022-10-16T11:17:50;6.47;;;1.08;;
21192;SDS011;10754;51.106;7.164;2022-10-16T11:20:30;4.40;;;0.50;;
21192;SDS011;10754;51.106;7.164;2022-10-16T11:25:39;1.35;;;0.30;;
21192;SDS011;10754;51.106;7.164;2022-10-16T11:28:08;0.98;;;0.40;;
21192;SDS011;10754;51.106;7.164;2022-10-16T11:33:42;0.98;;;0.30;;
21192;SDS011;10754;51.106;7.164;2022-10-16T11:36:14;3.25;;;0.38;;
21192;SDS011;10754;51.106;7.164;2022-10-16T11:39:04;3.90;;;0.60;;
21192;SDS011;10754;51.106;7.164;2022-10-16T11:41:44;2.35;;;0.40;;
21192;SDS011;10754;51.106;7.164;2022-10-16T11:47:34;1.60;;;0.20;;
21192;SDS011;10754;51.106;7.164;2022-10-16T11:53:03;0.98;;;0.38;;
21192;SDS011;10754;51.106;7.164;2022-10-16T11:55:39;1.38;;;0.50;;
21192;SDS011;10754;51.106;7.164;2022-10-16T11:58:08;5.53;;;0.90;;
21192;SDS011;10754;51.106;7.164;2022-10-16T12:01:10;2.05;;;0.30;;
21192;SDS011;10754;51.106;7.164;2022-10-16T12:06:30;0.55;;;0.22;;
21192;SDS011;10754;51.106;7.164;2022-10-16T12:09:21;2.97;;;0.43;;
21192;SDS011;10754;51.106;7.164;2022-10-16T12:11:51;1.05;;;0.32;;
21192;SDS011;10754;51.106;7.164;2022-10-16T12:14:19;2.88;;;0.40;;
21192;SDS011;10754;51.106;7.164;2022-10-16T12:19:27;1.45;;;0.60;;
21192;SDS011;10754;51.106;7.164;2022-10-16T12:21:55;2.67;;;0.40;;
21192;SDS011;10754;51.106;7.164;2022-10-16T12:26:59;4.32;;;0.65;;
21192;SDS011;10754;51.106;7.164;2022-10-16T12:29:30;1.88;;;0.40;;
21192;SDS011;10754;51.106;7.164;2022-10-16T12:31:59;0.77;;;0.20;;
21192;SDS011;10754;51.106;7.164;2022-10-16T12:36:50;1.00;;;0.30;;
21192;SDS011;10754;51.106;7.164;2022-10-16T12:39:20;1.55;;;0.40;;
21192;SDS011;10754;51.106;7.164;2022-10-16T12:41:47;0.68;;;0.30;;
21192;SDS011;10754;51.106;7.164;2022-10-16T12:44:24;1.15;;;0.40;;
21192;SDS011;10754;51.106;7.164;2022-10-16T12:46:53;1.38;;;0.45;;
21192;SDS011;10754;51.106;7.164;2022-10-16T12:51:53;2.75;;;0.40;;
21192;SDS011;10754;51.106;7.164;2022-10-16T12:54:25;2.65;;;0.60;;
21192;SDS011;10754;51.106;7.164;2022-10-16T13:00:04;1.08;;;0.30;;
21192;SDS011;10754;51.106;7.164;2022-10-16T13:06:07;1.85;;;0.30;;
21192;SDS011;10754;51.106;7.164;2022-10-16T13:17:13;1.88;;;0.40;;
21192;SDS011;10754;51.106;7.164;2022-10-16T13:19:46;2.97;;;0.50;;
21192;SDS011;10754;51.106;7.164;2022-10-16T13:28:07;3.85;;;1.00;;
21192;SDS011;10754;51.106;7.164;2022-10-16T13:30:38;2.40;;;0.50;;
21192;SDS011;10754;51.106;7.164;2022-10-16T13:33:07;1.40;;;0.30;;
21192;SDS011;10754;51.106;7.164;2022-10-16T13:35:47;2.90;;;0.43;;
21192;SDS011;10754;51.106;7.164;2022-10-16T13:38:15;1.05;;;0.30;;
21192;SDS011;10754;51.106;7.164;2022-10-16T13:43:23;1.30;;;0.50;;
21192;SDS011;10754;51.106;7.164;2022-10-16T13:46:00;2.47;;;0.47;;
21192;SDS011;10754;51.106;7.164;2022-10-16T13:48:29;1.30;;;0.47;;
21192;SDS011;10754;51.106;7.164;2022-10-16T13:51:02;1.80;;;0.45;;
21192;SDS011;10754;51.106;7.164;2022-10-16T13:53:37;1.42;;;0.35;;
21192;SDS011;10754;51.106;7.164;2022-10-16T13:56:03;3.05;;;0.40;;
21192;SDS011;10754;51.106;7.164;2022-10-16T13:58:31;0.75;;;0.30;;
21192;SDS011;10754;51.106;7.164;2022-10-16T14:00:58;1.65;;;0.40;;
21192;SDS011;10754;51.106;7.164;2022-10-16T14:03:30;0.95;;;0.30;;
21192;SDS011;10754;51.106;7.164;2022-10-16T14:05:57;0.98;;;0.40;;
21192;SDS011;10754;51.106;7.164;2022-10-16T14:08:28;0.28;;;0.20;;
21192;SDS011;10754;51.106;7.164;2022-10-16T14:11:04;0.35;;;0.20;;
21192;SDS011;10754;51.106;7.164;2022-10-16T14:13:39;0.30;;;0.20;;
21192;SDS011;10754;51.106;7.164;2022-10-16T14:16:09;2.17;;;0.50;;
21192;SDS011;10754;51.106;7.164;2022-10-16T14:18:41;0.20;;;0.10;;
21192;SDS011;10754;51.106;7.164;2022-10-16T14:21:13;1.63;;;0.20;;
21192;SDS011;10754;51.106;7.164;2022-10-16T14:23:41;3.58;;;0.50;;
21192;SDS011;10754;51.106;7.164;2022-10-16T14:28:33;1.48;;;0.35;;
21192;SDS011;10754;51.106;7.164;2022-10-16T14:31:00;1.30;;;0.28;;
21192;SDS011;10754;51.106;7.164;2022-10-16T14:38:24;4.85;;;0.65;;
21192;SDS011;10754;51.106;7.164;2022-10-16T14:40:50;1.75;;;0.40;;
21192;SDS011;10754;51.106;7.164;2022-10-16T14:43:22;0.82;;;0.55;;
21192;SDS011;10754;51.106;7.164;2022-10-16T14:45:53;0.60;;;0.20;;
21192;SDS011;10754;51.106;7.164;2022-10-16T14:48:21;0.80;;;0.30;;
21192;SDS011;10754;51.106;7.164;2022-10-16T14:50:47;1.33;;;0.35;;
21192;SDS011;10754;51.106;7.164;2022-10-16T14:53:12;1.77;;;0.40;;
21192;SDS011;10754;51.106;7.164;2022-10-16T14:55:38;3.65;;;0.60;;
21192;SDS011;10754;51.106;7.164;2022-10-16T14:58:05;2.05;;;0.50;;
21192;SDS011;10754;51.106;7.164;2022-10-16T15:00:34;1.83;;;0.43;;
21192;SDS011;10754;51.106;7.164;2022-10-16T15:03:00;3.40;;;0.50;;
21192;SDS011;10754;51.106;7.164;2022-10-16T15:05:26;2.15;;;0.30;;
21192;SDS011;10754;51.106;7.164;2022-10-16T15:07:53;0.95;;;0.30;;
21192;SDS011;10754;51.106;7.164;2022-10-16T15:10:20;2.70;;;0.50;;
21192;SDS011;10754;51.106;7.164;2022-10-16T15:12:48;1.42;;;0.43;;
21192;SDS011;10754;51.106;7.164;2022-10-16T15:17:55;3.72;;;0.55;;
21192;SDS011;10754;51.106;7.164;2022-10-16T15:20:25;1.63;;;0.22;;
21192;SDS011;10754;51.106;7.164;2022-10-16T15:22:55;2.08;;;0.55;;
21192;SDS011;10754;51.106;7.164;2022-10-16T15:25:38;2.90;;;0.40;;
21192;SDS011;10754;51.106;7.164;2022-10-16T15:28:07;3.15;;;0.55;;
21192;SDS011;10754;51.106;7.164;2022-10-16T15:30:34;3.78;;;0.55;;
21192;SDS011;10754;51.106;7.164;2022-10-16T15:33:00;2.47;;;0.60;;
21192;SDS011;10754;51.106;7.164;2022-10-16T15:35:26;2.95;;;0.50;;
21192;SDS011;10754;51.106;7.164;2022-10-16T15:37:52;0.73;;;0.20;;
21192;SDS011;10754;51.106;7.164;2022-10-16T15:40:18;1.40;;;0.40;;
21192;SDS011;10754;51.106;7.164;2022-10-16T15:42:44;1.75;;;0.40;;
21192;SDS011;10754;51.106;7.164;2022-10-16T15:45:10;1.00;;;0.28;;
21192;SDS011;10754;51.106;7.164;2022-10-16T15:47:36;1.70;;;0.50;;
21192;SDS011;10754;51.106;7.164;2022-10-16T15:50:02;2.38;;;0.55;;
21192;SDS011;10754;51.106;7.164;2022-10-16T15:52:29;1.50;;;0.50;;
21192;SDS011;10754;51.106;7.164;2022-10-16T15:54:56;0.70;;;0.40;;
21192;SDS011;10754;51.106;7.164;2022-10-16T15:57:22;3.22;;;0.50;;
21192;SDS011;10754;51.106;7.164;2022-10-16T15:59:48;3.45;;;0.80;;
21192;SDS011;10754;51.106;7.164;2022-10-16T16:02:14;2.15;;;0.70;;
21192;SDS011;10754;51.106;7.164;2022-10-16T16:04:40;2.38;;;0.80;;
21192;SDS011;10754;51.106;7.164;2022-10-16T16:07:05;3.42;;;0.90;;
21192;SDS011;10754;51.106;7.164;2022-10-16T16:09:32;2.95;;;1.10;;
21192;SDS011;10754;51.106;7.164;2022-10-16T16:11:58;4.15;;;0.60;;
21192;SDS011;10754;51.106;7.164;2022-10-16T16:14:27;1.02;;;0.50;;
21192;SDS011;10754;51.106;7.164;2022-10-16T16:16:53;1.88;;;0.50;;
21192;SDS011;10754;51.106;7.164;2022-10-16T16:19:19;1.65;;;0.60;;
21192;SDS011;10754;51.106;7.164;2022-10-16T16:21:48;7.20;;;1.10;;
21192;SDS011;10754;51.106;7.164;2022-10-16T16:24:14;2.38;;;0.60;;
21192;SDS011;10754;51.106;7.164;2022-10-16T16:26:40;3.28;;;1.00;;
21192;SDS011;10754;51.106;7.164;2022-10-16T16:29:08;2.15;;;1.05;;
21192;SDS011;10754;51.106;7.164;2022-10-16T16:31:38;4.03;;;1.05;;
21192;SDS011;10754;51.106;7.164;2022-10-16T16:34:04;1.70;;;0.70;;
21192;SDS011;10754;51.106;7.164;2022-10-16T16:36:30;3.05;;;1.13;;
21192;SDS011;10754;51.106;7.164;2022-10-16T16:38:56;5.18;;;1.20;;
21192;SDS011;10754;51.106;7.164;2022-10-16T16:41:23;2.90;;;1.52;;
21192;SDS011;10754;51.106;7.164;2022-10-16T16:43:51;4.45;;;1.40;;
21192;SDS011;10754;51.106;7.164;2022-10-16T16:46:17;8.90;;;1.98;;
21192;SDS011;10754;51.106;7.164;2022-10-16T16:48:43;3.05;;;1.20;;
21192;SDS011;10754;51.106;7.164;2022-10-16T16:51:13;4.97;;;0.93;;
21192;SDS011;10754;51.106;7.164;2022-10-16T16:53:44;6.30;;;1.23;;
21192;SDS011;10754;51.106;7.164;2022-10-16T16:56:12;2.72;;;0.70;;
21192;SDS011;10754;51.106;7.164;2022-10-16T16:58:37;2.95;;;0.88;;